createdAt,value
2022-09-26T00:03:54.627Z,7.16
2022-09-26T00:08:56.329Z,7.09
2022-09-26T00:13:59.988Z,7.02
2022-09-26T00:19:01.330Z,6.99
2022-09-26T00:24:03.478Z,7.01
2022-09-26T00:29:07.527Z,6.97
2022-09-26T00:34:11.496Z,7.03
2022-09-26T00:39:14.670Z,7.04
2022-09-26T00:44:37.730Z,7.01
2022-09-26T00:49:43.799Z,6.94
2022-09-26T00:54:48.750Z,6.90
2022-09-26T00:59:54.257Z,6.84
2022-09-26T01:04:57.676Z,6.84
2022-09-26T01:09:59.808Z,6.87
2022-09-26T01:15:01.103Z,6.92
2022-09-26T01:20:49.383Z,6.96
2022-09-26T01:26:27.901Z,6.97
2022-09-26T01:32:47.725Z,6.97
2022-09-26T01:39:09.862Z,7.07
2022-09-26T01:46:13.003Z,7.15
2022-09-26T01:51:20.512Z,6.98
2022-09-26T01:56:26.042Z,7.24
2022-09-26T02:01:30.104Z,7.07
2022-09-26T02:06:46.956Z,6.89
2022-09-26T02:11:50.065Z,6.72
2022-09-26T02:16:54.166Z,6.77
2022-09-26T02:21:57.854Z,6.76
2022-09-26T02:26:58.663Z,6.76
2022-09-26T02:32:11.976Z,6.80
2022-09-26T02:37:14.144Z,6.84
2022-09-26T02:43:05.969Z,6.79
2022-09-26T02:48:27.188Z,6.75
2022-09-26T02:53:51.257Z,6.81
2022-09-26T02:59:05.827Z,6.76
2022-09-26T03:04:17.919Z,6.84
2022-09-26T03:09:22.153Z,6.81
2022-09-26T03:14:22.916Z,6.80
2022-09-26T03:20:12.442Z,6.69
2022-09-26T03:25:19.254Z,6.80
2022-09-26T03:30:25.846Z,6.53
2022-09-26T03:36:11.633Z,6.52
2022-09-26T03:41:12.703Z,6.38
2022-09-26T03:46:36.199Z,6.65
2022-09-26T03:51:40.180Z,6.79
2022-09-26T03:56:41.069Z,6.82
2022-09-26T04:01:42.509Z,6.93
2022-09-26T04:06:44.012Z,7.12
2022-09-26T04:11:45.807Z,7.23
2022-09-26T04:16:47.149Z,7.22
2022-09-26T04:22:00.852Z,7.16
2022-09-26T04:27:05.405Z,7.08
2022-09-26T04:32:06.778Z,7.07
2022-09-26T04:37:20.228Z,7.03
2022-09-26T04:42:21.161Z,7.10
2022-09-26T04:47:23.135Z,7.27
2022-09-26T04:52:44.057Z,7.33
2022-09-26T04:57:45.750Z,7.28
2022-09-26T05:02:46.533Z,7.22
2022-09-26T05:07:47.847Z,7.17
2022-09-26T05:12:48.807Z,7.25
2022-09-26T05:17:59.557Z,7.09
2022-09-26T05:23:02.698Z,7.05
2022-09-26T05:28:05.298Z,7.06
2022-09-26T05:33:06.635Z,6.92
2022-09-26T05:38:08.231Z,7.06
2022-09-26T05:43:11.527Z,6.98
2022-09-26T05:48:14.376Z,6.93
2022-09-26T05:53:15.258Z,6.90
2022-09-26T05:58:20.171Z,7.18
2022-09-26T06:03:56.265Z,7.69
2022-09-26T06:08:59.460Z,8.29
2022-09-26T06:14:20.361Z,8.48
2022-09-26T06:19:23.102Z,8.46
2022-09-26T06:24:24.596Z,8.55
2022-09-26T06:29:31.717Z,8.52
2022-09-26T06:34:32.702Z,8.76
2022-09-26T06:40:18.731Z,9.08
2022-09-26T06:45:19.602Z,9.21
2022-09-26T06:50:41.100Z,9.16
2022-09-26T06:55:42.419Z,9.27
2022-09-26T07:00:43.779Z,9.36
2022-09-26T07:08:32.567Z,9.41
2022-09-26T07:13:48.244Z,9.65
2022-09-26T07:18:49.253Z,9.69
2022-09-26T07:24:27.529Z,9.53
2022-09-26T07:29:28.992Z,9.30
2022-09-26T07:34:30.904Z,9.41
2022-09-26T07:39:32.130Z,9.59
2022-09-26T07:50:12.683Z,9.65
2022-09-26T07:55:31.536Z,9.85
2022-09-26T08:00:51.104Z,9.91
2022-09-26T08:07:25.699Z,10.17
2022-09-26T08:12:37.859Z,10.10
2022-09-26T08:17:59.777Z,10.16
2022-09-26T08:23:00.961Z,10.35
2022-09-26T08:28:06.646Z,10.38
2022-09-26T08:33:10.742Z,10.36
2022-09-26T08:38:11.743Z,10.31
2022-09-26T08:44:21.731Z,10.21
2022-09-26T08:50:57.139Z,10.04
2022-09-26T08:56:00.861Z,10.06
2022-09-26T09:01:10.548Z,10.30
2022-09-26T09:06:29.707Z,10.86
2022-09-26T09:12:49.299Z,10.40
2022-09-26T09:18:21.051Z,10.30
2022-09-26T09:27:52.452Z,10.20
2022-09-26T09:32:58.279Z,11.03
2022-09-26T09:38:33.327Z,11.73
2022-09-26T09:43:55.562Z,11.08
2022-09-26T09:49:14.256Z,11.64
2022-09-26T09:56:05.385Z,11.42
2022-09-26T10:01:14.917Z,11.31
2022-09-26T10:06:45.098Z,11.05
2022-09-26T10:11:52.563Z,10.99
2022-09-26T10:18:24.052Z,10.71
2022-09-26T10:23:51.335Z,10.51
2022-09-26T10:29:08.062Z,10.27
2022-09-26T10:34:29.854Z,10.40
2022-09-26T10:39:49.491Z,10.49
2022-09-26T10:44:56.746Z,10.68
2022-09-26T10:50:21.281Z,10.81
2022-09-26T10:56:35.365Z,11.45
2022-09-26T11:01:42.592Z,11.64
2022-09-26T11:06:44.872Z,11.20
2022-09-26T11:11:51.693Z,10.92
2022-09-26T11:16:55.251Z,10.63
2022-09-26T11:22:08.052Z,10.43
2022-09-26T11:33:04.681Z,10.23
2022-09-26T11:38:55.708Z,10.31
2022-09-26T11:44:27.290Z,10.24
2022-09-26T11:58:25.900Z,10.34
2022-09-26T12:03:57.282Z,10.27
2022-09-26T12:11:37.845Z,10.57
2022-09-26T12:19:54.914Z,10.80
2022-09-26T12:25:55.300Z,10.77
2022-09-26T12:32:41.386Z,10.64
2022-09-26T12:39:27.075Z,10.67
2022-09-26T12:44:51.857Z,10.68
2022-09-26T12:50:23.298Z,10.64
2022-09-26T12:57:28.984Z,10.57
2022-09-26T13:07:18.739Z,10.55
2022-09-26T13:17:45.397Z,10.50
2022-09-26T13:24:23.546Z,10.43
2022-09-26T13:29:36.547Z,10.34
2022-09-26T13:34:45.947Z,10.47
2022-09-26T13:39:52.275Z,10.45
2022-09-26T13:45:18.665Z,10.46
2022-09-26T13:50:44.356Z,10.51
2022-09-26T13:55:45.840Z,10.59
2022-09-26T14:00:52.550Z,10.53
2022-09-26T14:06:07.538Z,10.62
2022-09-26T14:11:50.707Z,10.67
2022-09-26T14:16:58.486Z,10.61
2022-09-26T14:22:32.111Z,10.74
2022-09-26T14:27:51.457Z,10.77
2022-09-26T14:33:01.150Z,10.81
2022-09-26T14:38:08.471Z,11.03
2022-09-26T14:43:15.890Z,11.10
2022-09-26T14:48:35.432Z,11.17
2022-09-26T14:53:42.033Z,11.33
2022-09-26T14:58:49.457Z,11.48
2022-09-26T15:03:55.014Z,11.52
2022-09-26T15:08:58.867Z,11.57
2022-09-26T15:14:13.147Z,11.53
2022-09-26T15:19:18.654Z,11.42
2022-09-26T15:24:26.553Z,11.38
2022-09-26T15:29:27.648Z,11.35
2022-09-26T15:34:36.150Z,11.31
2022-09-26T15:39:41.262Z,11.19
2022-09-26T15:44:47.786Z,11.13
2022-09-26T15:50:09.385Z,10.97
2022-09-26T15:55:28.676Z,10.75
2022-09-26T16:00:33.108Z,10.40
2022-09-26T16:05:34.140Z,10.22
2022-09-26T16:10:35.126Z,10.06
2022-09-26T16:15:36.293Z,10.02
2022-09-26T16:20:37.376Z,10.02
2022-09-26T16:25:57.355Z,9.85
2022-09-26T16:31:12.062Z,9.75
2022-09-26T16:36:33.767Z,9.75
2022-09-26T16:47:48.917Z,9.46
2022-09-26T16:52:49.937Z,9.28
2022-09-26T16:57:55.010Z,9.17
2022-09-26T17:02:55.937Z,9.15
2022-09-26T17:07:57.104Z,9.10
2022-09-26T17:13:01.870Z,9.00
2022-09-26T17:18:07.429Z,8.93
2022-09-26T17:23:27.985Z,8.88
2022-09-26T17:28:41.900Z,8.81
2022-09-26T17:33:43.333Z,8.82
2022-09-26T17:38:44.515Z,8.66
2022-09-26T17:43:45.362Z,8.66
2022-09-26T17:48:46.599Z,8.59
2022-09-26T17:53:50.533Z,8.54
2022-09-26T17:58:53.468Z,8.48
2022-09-26T18:04:00.125Z,8.47
2022-09-26T18:09:09.164Z,8.41
2022-09-26T18:14:14.862Z,8.46
2022-09-26T18:19:16.337Z,8.39
2022-09-26T18:24:19.631Z,8.44
2022-09-26T18:29:31.331Z,8.41
2022-09-26T18:34:32.182Z,8.33
2022-09-26T18:39:33.744Z,8.30
2022-09-26T18:44:35.631Z,8.27
2022-09-26T18:49:37.180Z,8.20
2022-09-26T18:54:38.057Z,8.21
2022-09-26T18:59:39.091Z,8.21
2022-09-26T19:04:39.923Z,8.22
2022-09-26T19:09:41.229Z,8.21
2022-09-26T19:14:43.283Z,8.22
2022-09-26T19:19:44.147Z,8.18
2022-09-26T19:24:57.483Z,8.21
2022-09-26T19:31:00.236Z,8.23
2022-09-26T19:36:01.468Z,8.24
2022-09-26T19:41:02.546Z,8.24
2022-09-26T19:46:05.456Z,8.24
2022-09-26T19:51:11.126Z,8.25
2022-09-26T19:56:11.983Z,8.26
2022-09-26T20:01:20.484Z,8.30
2022-09-26T20:06:24.065Z,8.32
2022-09-26T20:11:26.355Z,8.28
2022-09-26T20:16:28.347Z,8.37
2022-09-26T20:21:30.315Z,8.32
2022-09-26T20:26:32.941Z,8.28
2022-09-26T20:31:33.869Z,8.31
2022-09-26T20:36:35.219Z,8.37
2022-09-26T20:41:39.442Z,8.33
2022-09-26T20:46:47.749Z,8.32
2022-09-26T20:51:50.334Z,8.41
2022-09-26T20:56:52.478Z,8.39
2022-09-26T21:01:55.930Z,8.41
2022-09-26T21:06:57.126Z,8.39
2022-09-26T21:11:58.112Z,8.36
2022-09-26T21:16:59.013Z,8.35
2022-09-26T21:22:02.512Z,8.31
2022-09-26T21:27:16.259Z,8.36
2022-09-26T21:32:21.837Z,8.36
2022-09-26T21:37:22.779Z,8.35
2022-09-26T21:42:25.011Z,8.47
2022-09-26T21:47:27.226Z,8.38
2022-09-26T21:52:44.034Z,8.37
2022-09-26T21:57:48.254Z,8.45
2022-09-26T22:02:49.200Z,8.38
2022-09-26T22:07:50.072Z,8.37
2022-09-26T22:12:51.569Z,8.40
2022-09-26T22:17:52.533Z,8.34
2022-09-26T22:22:53.387Z,8.40
2022-09-26T22:27:54.851Z,8.39
2022-09-26T22:32:55.714Z,8.34
2022-09-26T22:37:56.611Z,8.43
2022-09-26T22:42:57.626Z,8.42
2022-09-26T22:47:58.672Z,8.44
2022-09-26T22:52:59.500Z,8.38
2022-09-26T22:58:00.843Z,8.42
2022-09-26T23:03:01.693Z,8.43
2022-09-26T23:08:02.530Z,8.51
2022-09-26T23:13:03.425Z,8.45
2022-09-26T23:18:04.312Z,8.47
2022-09-26T23:23:05.670Z,8.40
2022-09-26T23:28:06.574Z,8.44
2022-09-26T23:33:07.421Z,8.56
2022-09-26T23:38:08.295Z,8.48
2022-09-26T23:43:09.371Z,8.41
2022-09-26T23:48:10.246Z,8.38
2022-09-26T23:53:11.465Z,8.32
2022-09-26T23:58:12.776Z,8.25
